sensor_id;sensor_type;location;lat;lon;timestamp;P1;durP1;ratioP1;P2;durP2;ratioP2
62362;SDS011;48396;48.426;1.500;2023-05-09T00:01:37;3.92;;;2.60;;
62362;SDS011;48396;48.426;1.500;2023-05-09T00:04:04;6.43;;;2.72;;
62362;SDS011;48396;48.426;1.500;2023-05-09T00:06:29;4.03;;;2.55;;
62362;SDS011;48396;48.426;1.500;2023-05-09T00:08:56;5.85;;;2.88;;
62362;SDS011;48396;48.426;1.500;2023-05-09T00:11:22;4.90;;;2.67;;
62362;SDS011;48396;48.426;1.500;2023-05-09T00:13:48;7.00;;;3.08;;
62362;SDS011;48396;48.426;1.500;2023-05-09T00:16:14;5.20;;;2.80;;
62362;SDS011;48396;48.426;1.500;2023-05-09T00:18:41;6.43;;;2.60;;
62362;SDS011;48396;48.426;1.500;2023-05-09T00:21:07;5.32;;;2.70;;
62362;SDS011;48396;48.426;1.500;2023-05-09T00:23:34;3.75;;;2.30;;
62362;SDS011;48396;48.426;1.500;2023-05-09T00:26:01;5.68;;;2.63;;
62362;SDS011;48396;48.426;1.500;2023-05-09T00:28:26;5.68;;;2.75;;
62362;SDS011;48396;48.426;1.500;2023-05-09T00:30:52;5.07;;;2.50;;
62362;SDS011;48396;48.426;1.500;2023-05-09T00:33:18;6.07;;;2.55;;
62362;SDS011;48396;48.426;1.500;2023-05-09T00:35:44;3.40;;;2.20;;
62362;SDS011;48396;48.426;1.500;2023-05-09T00:38:10;5.57;;;2.17;;
62362;SDS011;48396;48.426;1.500;2023-05-09T00:40:36;5.70;;;3.10;;
62362;SDS011;48396;48.426;1.500;2023-05-09T00:43:02;5.10;;;2.95;;
62362;SDS011;48396;48.426;1.500;2023-05-09T00:45:28;4.93;;;2.60;;
62362;SDS011;48396;48.426;1.500;2023-05-09T00:47:55;5.53;;;2.75;;
62362;SDS011;48396;48.426;1.500;2023-05-09T00:50:21;4.70;;;2.80;;
62362;SDS011;48396;48.426;1.500;2023-05-09T00:52:48;4.18;;;2.67;;
62362;SDS011;48396;48.426;1.500;2023-05-09T00:55:15;6.45;;;3.00;;
62362;SDS011;48396;48.426;1.500;2023-05-09T00:57:41;5.47;;;2.95;;
62362;SDS011;48396;48.426;1.500;2023-05-09T01:00:07;5.07;;;2.83;;
62362;SDS011;48396;48.426;1.500;2023-05-09T01:02:37;5.22;;;2.40;;
62362;SDS011;48396;48.426;1.500;2023-05-09T01:05:04;5.75;;;2.72;;
62362;SDS011;48396;48.426;1.500;2023-05-09T01:12:39;5.60;;;3.08;;
62362;SDS011;48396;48.426;1.500;2023-05-09T01:15:28;4.13;;;2.47;;
62362;SDS011;48396;48.426;1.500;2023-05-09T01:18:13;6.00;;;2.60;;
62362;SDS011;48396;48.426;1.500;2023-05-09T01:21:07;4.38;;;2.90;;
62362;SDS011;48396;48.426;1.500;2023-05-09T01:31:50;4.93;;;2.90;;
62362;SDS011;48396;48.426;1.500;2023-05-09T01:34:17;4.50;;;3.20;;
62362;SDS011;48396;48.426;1.500;2023-05-09T01:36:45;10.48;;;3.40;;
62362;SDS011;48396;48.426;1.500;2023-05-09T01:39:14;5.22;;;2.70;;
62362;SDS011;48396;48.426;1.500;2023-05-09T01:41:43;8.18;;;3.30;;
62362;SDS011;48396;48.426;1.500;2023-05-09T01:44:10;7.22;;;3.20;;
62362;SDS011;48396;48.426;1.500;2023-05-09T01:46:37;5.18;;;2.85;;
62362;SDS011;48396;48.426;1.500;2023-05-09T01:49:04;5.70;;;3.20;;
62362;SDS011;48396;48.426;1.500;2023-05-09T01:51:32;6.80;;;3.55;;
62362;SDS011;48396;48.426;1.500;2023-05-09T01:53:58;7.43;;;3.10;;
62362;SDS011;48396;48.426;1.500;2023-05-09T01:56:25;4.55;;;3.05;;
62362;SDS011;48396;48.426;1.500;2023-05-09T01:58:52;5.85;;;3.30;;
62362;SDS011;48396;48.426;1.500;2023-05-09T02:01:20;4.88;;;2.90;;
62362;SDS011;48396;48.426;1.500;2023-05-09T02:03:49;7.03;;;3.25;;
62362;SDS011;48396;48.426;1.500;2023-05-09T02:06:16;11.75;;;3.78;;
62362;SDS011;48396;48.426;1.500;2023-05-09T02:08:44;8.63;;;3.33;;
62362;SDS011;48396;48.426;1.500;2023-05-09T02:11:11;8.48;;;3.20;;
62362;SDS011;48396;48.426;1.500;2023-05-09T02:13:37;6.72;;;3.25;;
62362;SDS011;48396;48.426;1.500;2023-05-09T02:16:03;6.93;;;3.47;;
62362;SDS011;48396;48.426;1.500;2023-05-09T02:18:31;7.00;;;2.92;;
62362;SDS011;48396;48.426;1.500;2023-05-09T02:23:42;5.05;;;3.03;;
62362;SDS011;48396;48.426;1.500;2023-05-09T02:26:08;8.18;;;3.20;;
62362;SDS011;48396;48.426;1.500;2023-05-09T02:28:33;6.68;;;3.00;;
62362;SDS011;48396;48.426;1.500;2023-05-09T02:31:00;5.55;;;2.75;;
62362;SDS011;48396;48.426;1.500;2023-05-09T02:33:28;6.15;;;3.20;;
62362;SDS011;48396;48.426;1.500;2023-05-09T02:35:55;5.15;;;3.28;;
62362;SDS011;48396;48.426;1.500;2023-05-09T02:38:21;8.43;;;3.33;;
62362;SDS011;48396;48.426;1.500;2023-05-09T02:40:48;7.50;;;3.28;;
62362;SDS011;48396;48.426;1.500;2023-05-09T02:43:15;5.57;;;2.90;;
62362;SDS011;48396;48.426;1.500;2023-05-09T02:45:40;9.35;;;3.05;;
62362;SDS011;48396;48.426;1.500;2023-05-09T02:48:06;4.90;;;3.00;;
62362;SDS011;48396;48.426;1.500;2023-05-09T02:50:32;6.82;;;3.40;;
62362;SDS011;48396;48.426;1.500;2023-05-09T02:52:57;6.07;;;3.22;;
62362;SDS011;48396;48.426;1.500;2023-05-09T02:55:23;5.55;;;3.03;;
62362;SDS011;48396;48.426;1.500;2023-05-09T02:57:48;5.93;;;3.72;;
62362;SDS011;48396;48.426;1.500;2023-05-09T03:00:14;5.82;;;3.30;;
62362;SDS011;48396;48.426;1.500;2023-05-09T03:02:41;7.07;;;3.50;;
62362;SDS011;48396;48.426;1.500;2023-05-09T03:05:07;5.68;;;3.17;;
62362;SDS011;48396;48.426;1.500;2023-05-09T03:07:33;5.35;;;2.83;;
62362;SDS011;48396;48.426;1.500;2023-05-09T03:09:59;7.38;;;2.80;;
62362;SDS011;48396;48.426;1.500;2023-05-09T03:12:24;5.57;;;3.00;;
62362;SDS011;48396;48.426;1.500;2023-05-09T03:14:50;5.90;;;3.15;;
62362;SDS011;48396;48.426;1.500;2023-05-09T03:17:16;5.32;;;2.70;;
62362;SDS011;48396;48.426;1.500;2023-05-09T03:19:45;6.97;;;3.13;;
62362;SDS011;48396;48.426;1.500;2023-05-09T03:22:12;8.88;;;3.22;;
62362;SDS011;48396;48.426;1.500;2023-05-09T03:24:37;6.70;;;3.17;;
62362;SDS011;48396;48.426;1.500;2023-05-09T03:27:03;7.57;;;3.20;;
62362;SDS011;48396;48.426;1.500;2023-05-09T03:29:28;7.28;;;3.30;;
62362;SDS011;48396;48.426;1.500;2023-05-09T03:31:54;6.95;;;3.10;;
62362;SDS011;48396;48.426;1.500;2023-05-09T03:34:20;4.18;;;2.47;;
62362;SDS011;48396;48.426;1.500;2023-05-09T03:36:45;6.05;;;3.30;;
62362;SDS011;48396;48.426;1.500;2023-05-09T03:39:11;5.40;;;2.90;;
62362;SDS011;48396;48.426;1.500;2023-05-09T03:41:36;7.05;;;3.10;;
62362;SDS011;48396;48.426;1.500;2023-05-09T03:44:02;6.00;;;3.08;;
62362;SDS011;48396;48.426;1.500;2023-05-09T03:46:28;5.25;;;3.05;;
62362;SDS011;48396;48.426;1.500;2023-05-09T03:48:54;9.15;;;3.70;;
62362;SDS011;48396;48.426;1.500;2023-05-09T03:51:19;7.95;;;3.75;;
62362;SDS011;48396;48.426;1.500;2023-05-09T03:53:45;4.78;;;2.90;;
62362;SDS011;48396;48.426;1.500;2023-05-09T03:56:12;5.88;;;3.60;;
62362;SDS011;48396;48.426;1.500;2023-05-09T03:58:38;8.77;;;3.40;;
62362;SDS011;48396;48.426;1.500;2023-05-09T04:01:03;8.88;;;3.30;;
62362;SDS011;48396;48.426;1.500;2023-05-09T04:03:29;7.32;;;3.30;;
62362;SDS011;48396;48.426;1.500;2023-05-09T04:05:55;8.48;;;3.38;;
62362;SDS011;48396;48.426;1.500;2023-05-09T04:08:21;8.00;;;3.30;;
62362;SDS011;48396;48.426;1.500;2023-05-09T04:10:48;8.13;;;3.55;;
62362;SDS011;48396;48.426;1.500;2023-05-09T04:13:14;8.10;;;3.80;;
62362;SDS011;48396;48.426;1.500;2023-05-09T04:15:41;10.75;;;4.07;;
62362;SDS011;48396;48.426;1.500;2023-05-09T04:18:07;6.70;;;3.30;;
62362;SDS011;48396;48.426;1.500;2023-05-09T04:20:32;6.57;;;3.20;;
62362;SDS011;48396;48.426;1.500;2023-05-09T04:22:58;8.00;;;3.50;;
62362;SDS011;48396;48.426;1.500;2023-05-09T04:25:24;9.57;;;3.63;;
62362;SDS011;48396;48.426;1.500;2023-05-09T04:27:50;6.43;;;3.38;;
62362;SDS011;48396;48.426;1.500;2023-05-09T04:30:15;6.78;;;3.22;;
62362;SDS011;48396;48.426;1.500;2023-05-09T04:32:41;8.40;;;3.85;;
62362;SDS011;48396;48.426;1.500;2023-05-09T04:35:10;4.72;;;3.15;;
62362;SDS011;48396;48.426;1.500;2023-05-09T04:37:36;8.55;;;3.63;;
62362;SDS011;48396;48.426;1.500;2023-05-09T04:40:02;6.45;;;3.42;;
62362;SDS011;48396;48.426;1.500;2023-05-09T04:42:29;7.78;;;3.13;;
62362;SDS011;48396;48.426;1.500;2023-05-09T04:44:57;5.75;;;2.85;;
62362;SDS011;48396;48.426;1.500;2023-05-09T04:47:23;5.47;;;2.85;;
62362;SDS011;48396;48.426;1.500;2023-05-09T04:49:49;4.72;;;2.45;;
62362;SDS011;48396;48.426;1.500;2023-05-09T04:52:15;6.55;;;2.80;;
62362;SDS011;48396;48.426;1.500;2023-05-09T04:54:40;6.32;;;2.80;;
62362;SDS011;48396;48.426;1.500;2023-05-09T04:57:06;6.25;;;2.90;;
62362;SDS011;48396;48.426;1.500;2023-05-09T04:59:32;7.63;;;3.15;;
62362;SDS011;48396;48.426;1.500;2023-05-09T05:01:58;4.30;;;2.80;;
62362;SDS011;48396;48.426;1.500;2023-05-09T05:04:23;7.97;;;3.22;;
62362;SDS011;48396;48.426;1.500;2023-05-09T05:06:49;5.05;;;3.00;;
62362;SDS011;48396;48.426;1.500;2023-05-09T05:09:14;10.23;;;3.13;;
62362;SDS011;48396;48.426;1.500;2023-05-09T05:11:40;7.05;;;3.17;;
62362;SDS011;48396;48.426;1.500;2023-05-09T05:14:06;6.30;;;3.28;;
62362;SDS011;48396;48.426;1.500;2023-05-09T05:16:31;8.85;;;3.30;;
62362;SDS011;48396;48.426;1.500;2023-05-09T05:18:57;7.57;;;3.47;;
62362;SDS011;48396;48.426;1.500;2023-05-09T05:21:22;8.93;;;3.53;;
62362;SDS011;48396;48.426;1.500;2023-05-09T05:23:48;9.25;;;4.28;;
62362;SDS011;48396;48.426;1.500;2023-05-09T05:26:13;6.50;;;3.45;;
62362;SDS011;48396;48.426;1.500;2023-05-09T05:28:57;8.18;;;3.47;;
62362;SDS011;48396;48.426;1.500;2023-05-09T05:31:23;7.55;;;3.47;;
62362;SDS011;48396;48.426;1.500;2023-05-09T05:33:48;9.43;;;3.55;;
62362;SDS011;48396;48.426;1.500;2023-05-09T05:36:14;8.63;;;3.90;;
62362;SDS011;48396;48.426;1.500;2023-05-09T05:38:40;11.52;;;4.10;;
62362;SDS011;48396;48.426;1.500;2023-05-09T05:41:05;10.20;;;3.97;;
62362;SDS011;48396;48.426;1.500;2023-05-09T05:43:35;8.13;;;3.97;;
62362;SDS011;48396;48.426;1.500;2023-05-09T05:46:00;10.60;;;4.15;;
62362;SDS011;48396;48.426;1.500;2023-05-09T05:48:26;8.13;;;3.70;;
62362;SDS011;48396;48.426;1.500;2023-05-09T05:50:51;9.23;;;3.88;;
62362;SDS011;48396;48.426;1.500;2023-05-09T05:53:17;8.52;;;3.92;;
62362;SDS011;48396;48.426;1.500;2023-05-09T05:55:42;8.48;;;4.22;;
62362;SDS011;48396;48.426;1.500;2023-05-09T05:58:09;9.05;;;4.05;;
62362;SDS011;48396;48.426;1.500;2023-05-09T06:00:35;10.10;;;4.15;;
62362;SDS011;48396;48.426;1.500;2023-05-09T06:03:01;9.18;;;4.00;;
62362;SDS011;48396;48.426;1.500;2023-05-09T06:05:26;6.55;;;3.72;;
62362;SDS011;48396;48.426;1.500;2023-05-09T06:07:52;8.93;;;3.70;;
62362;SDS011;48396;48.426;1.500;2023-05-09T06:10:17;10.55;;;4.47;;
62362;SDS011;48396;48.426;1.500;2023-05-09T06:12:43;8.95;;;3.75;;
62362;SDS011;48396;48.426;1.500;2023-05-09T06:15:08;7.47;;;3.97;;
62362;SDS011;48396;48.426;1.500;2023-05-09T06:17:34;8.13;;;3.75;;
62362;SDS011;48396;48.426;1.500;2023-05-09T06:20:00;8.13;;;3.33;;
62362;SDS011;48396;48.426;1.500;2023-05-09T06:22:44;7.03;;;2.75;;
62362;SDS011;48396;48.426;1.500;2023-05-09T06:25:10;5.00;;;2.40;;
62362;SDS011;48396;48.426;1.500;2023-05-09T06:27:35;4.03;;;2.20;;
62362;SDS011;48396;48.426;1.500;2023-05-09T06:30:01;2.45;;;1.80;;
62362;SDS011;48396;48.426;1.500;2023-05-09T06:32:27;2.17;;;1.63;;
62362;SDS011;48396;48.426;1.500;2023-05-09T06:34:53;5.88;;;1.77;;
62362;SDS011;48396;48.426;1.500;2023-05-09T06:37:18;2.83;;;1.42;;
62362;SDS011;48396;48.426;1.500;2023-05-09T06:39:44;4.95;;;1.60;;
62362;SDS011;48396;48.426;1.500;2023-05-09T06:42:09;6.00;;;1.75;;
62362;SDS011;48396;48.426;1.500;2023-05-09T06:44:35;1.92;;;1.48;;
62362;SDS011;48396;48.426;1.500;2023-05-09T06:47:00;5.55;;;1.95;;
62362;SDS011;48396;48.426;1.500;2023-05-09T06:49:26;2.58;;;1.40;;
62362;SDS011;48396;48.426;1.500;2023-05-09T06:51:51;6.40;;;1.90;;
62362;SDS011;48396;48.426;1.500;2023-05-09T06:54:17;3.80;;;1.70;;
62362;SDS011;48396;48.426;1.500;2023-05-09T06:56:43;4.78;;;1.90;;
62362;SDS011;48396;48.426;1.500;2023-05-09T06:59:08;6.68;;;2.00;;
62362;SDS011;48396;48.426;1.500;2023-05-09T07:01:37;4.50;;;1.83;;
62362;SDS011;48396;48.426;1.500;2023-05-09T07:04:04;6.28;;;1.80;;
62362;SDS011;48396;48.426;1.500;2023-05-09T07:06:29;5.50;;;1.67;;
62362;SDS011;48396;48.426;1.500;2023-05-09T07:08:55;7.32;;;2.22;;
62362;SDS011;48396;48.426;1.500;2023-05-09T07:11:21;3.63;;;1.60;;
62362;SDS011;48396;48.426;1.500;2023-05-09T07:13:46;5.32;;;1.67;;
62362;SDS011;48396;48.426;1.500;2023-05-09T07:16:12;3.33;;;1.50;;
62362;SDS011;48396;48.426;1.500;2023-05-09T07:18:37;4.57;;;1.83;;
62362;SDS011;48396;48.426;1.500;2023-05-09T07:21:03;3.10;;;1.80;;
62362;SDS011;48396;48.426;1.500;2023-05-09T07:23:29;5.13;;;1.48;;
62362;SDS011;48396;48.426;1.500;2023-05-09T07:25:57;2.35;;;1.42;;
62362;SDS011;48396;48.426;1.500;2023-05-09T07:28:24;1.67;;;1.33;;
62362;SDS011;48396;48.426;1.500;2023-05-09T07:30:50;3.90;;;1.55;;
62362;SDS011;48396;48.426;1.500;2023-05-09T07:33:15;3.67;;;1.70;;
62362;SDS011;48396;48.426;1.500;2023-05-09T07:35:41;3.00;;;1.08;;
62362;SDS011;48396;48.426;1.500;2023-05-09T07:38:07;3.05;;;0.93;;
62362;SDS011;48396;48.426;1.500;2023-05-09T07:40:32;3.80;;;1.20;;
62362;SDS011;48396;48.426;1.500;2023-05-09T07:43:00;2.55;;;1.10;;
62362;SDS011;48396;48.426;1.500;2023-05-09T07:45:26;3.65;;;1.23;;
62362;SDS011;48396;48.426;1.500;2023-05-09T07:47:51;1.00;;;0.85;;
62362;SDS011;48396;48.426;1.500;2023-05-09T07:50:17;2.63;;;1.15;;
62362;SDS011;48396;48.426;1.500;2023-05-09T07:52:42;1.35;;;0.93;;
62362;SDS011;48396;48.426;1.500;2023-05-09T07:55:08;1.80;;;0.98;;
62362;SDS011;48396;48.426;1.500;2023-05-09T07:57:36;3.85;;;1.05;;
62362;SDS011;48396;48.426;1.500;2023-05-09T08:00:02;3.00;;;1.45;;
62362;SDS011;48396;48.426;1.500;2023-05-09T08:02:30;1.20;;;0.93;;
62362;SDS011;48396;48.426;1.500;2023-05-09T08:04:56;2.40;;;1.10;;
62362;SDS011;48396;48.426;1.500;2023-05-09T08:07:21;2.33;;;1.08;;
62362;SDS011;48396;48.426;1.500;2023-05-09T08:09:47;1.85;;;1.10;;
62362;SDS011;48396;48.426;1.500;2023-05-09T08:12:12;3.83;;;1.10;;
62362;SDS011;48396;48.426;1.500;2023-05-09T08:14:38;1.70;;;1.10;;
62362;SDS011;48396;48.426;1.500;2023-05-09T08:17:03;1.75;;;1.13;;
62362;SDS011;48396;48.426;1.500;2023-05-09T08:19:29;1.60;;;1.05;;
62362;SDS011;48396;48.426;1.500;2023-05-09T08:21:54;2.47;;;1.40;;
62362;SDS011;48396;48.426;1.500;2023-05-09T08:24:20;4.45;;;1.27;;
62362;SDS011;48396;48.426;1.500;2023-05-09T08:26:46;2.83;;;1.10;;
62362;SDS011;48396;48.426;1.500;2023-05-09T08:29:11;2.08;;;1.17;;
62362;SDS011;48396;48.426;1.500;2023-05-09T08:31:37;4.65;;;1.33;;
62362;SDS011;48396;48.426;1.500;2023-05-09T08:34:02;2.25;;;1.35;;
62362;SDS011;48396;48.426;1.500;2023-05-09T08:36:28;2.75;;;1.17;;
62362;SDS011;48396;48.426;1.500;2023-05-09T08:38:54;1.60;;;1.00;;
62362;SDS011;48396;48.426;1.500;2023-05-09T08:41:21;2.88;;;1.10;;
62362;SDS011;48396;48.426;1.500;2023-05-09T08:43:52;3.13;;;0.88;;
62362;SDS011;48396;48.426;1.500;2023-05-09T08:46:17;3.95;;;1.23;;
62362;SDS011;48396;48.426;1.500;2023-05-09T08:48:50;1.52;;;0.77;;
62362;SDS011;48396;48.426;1.500;2023-05-09T08:51:16;1.42;;;1.00;;
62362;SDS011;48396;48.426;1.500;2023-05-09T08:54:00;2.20;;;1.00;;
62362;SDS011;48396;48.426;1.500;2023-05-09T08:56:26;1.02;;;0.93;;
62362;SDS011;48396;48.426;1.500;2023-05-09T08:58:53;2.17;;;0.80;;
62362;SDS011;48396;48.426;1.500;2023-05-09T09:01:20;1.88;;;0.90;;
62362;SDS011;48396;48.426;1.500;2023-05-09T09:03:46;1.17;;;1.00;;
62362;SDS011;48396;48.426;1.500;2023-05-09T09:06:14;1.00;;;0.85;;
62362;SDS011;48396;48.426;1.500;2023-05-09T09:08:40;2.53;;;0.80;;
62362;SDS011;48396;48.426;1.500;2023-05-09T09:11:09;2.22;;;0.70;;
62362;SDS011;48396;48.426;1.500;2023-05-09T09:13:37;1.42;;;0.88;;
62362;SDS011;48396;48.426;1.500;2023-05-09T09:16:05;2.08;;;0.93;;
62362;SDS011;48396;48.426;1.500;2023-05-09T09:18:35;1.27;;;0.90;;
62362;SDS011;48396;48.426;1.500;2023-05-09T09:21:11;0.80;;;0.77;;
62362;SDS011;48396;48.426;1.500;2023-05-09T09:23:39;2.55;;;0.82;;
62362;SDS011;48396;48.426;1.500;2023-05-09T09:26:07;2.22;;;0.80;;
62362;SDS011;48396;48.426;1.500;2023-05-09T09:28:33;1.20;;;0.80;;
62362;SDS011;48396;48.426;1.500;2023-05-09T09:30:59;1.02;;;0.90;;
62362;SDS011;48396;48.426;1.500;2023-05-09T09:33:25;1.48;;;0.70;;
62362;SDS011;48396;48.426;1.500;2023-05-09T09:35:53;2.85;;;0.73;;
62362;SDS011;48396;48.426;1.500;2023-05-09T09:38:21;1.52;;;0.70;;
62362;SDS011;48396;48.426;1.500;2023-05-09T09:40:57;3.17;;;0.80;;
62362;SDS011;48396;48.426;1.500;2023-05-09T09:43:29;1.20;;;0.80;;
62362;SDS011;48396;48.426;1.500;2023-05-09T09:45:56;0.70;;;0.70;;
62362;SDS011;48396;48.426;1.500;2023-05-09T09:48:25;1.83;;;1.10;;
62362;SDS011;48396;48.426;1.500;2023-05-09T09:50:54;0.80;;;0.70;;
62362;SDS011;48396;48.426;1.500;2023-05-09T09:55:51;0.85;;;0.85;;
62362;SDS011;48396;48.426;1.500;2023-05-09T09:58:17;1.60;;;0.82;;
62362;SDS011;48396;48.426;1.500;2023-05-09T10:03:33;3.13;;;1.23;;
62362;SDS011;48396;48.426;1.500;2023-05-09T10:06:00;0.95;;;0.80;;
62362;SDS011;48396;48.426;1.500;2023-05-09T10:08:26;0.93;;;0.55;;
62362;SDS011;48396;48.426;1.500;2023-05-09T10:10:52;0.57;;;0.57;;
62362;SDS011;48396;48.426;1.500;2023-05-09T10:13:18;1.10;;;0.77;;
62362;SDS011;48396;48.426;1.500;2023-05-09T10:15:44;0.60;;;0.55;;
62362;SDS011;48396;48.426;1.500;2023-05-09T10:18:10;1.75;;;0.57;;
62362;SDS011;48396;48.426;1.500;2023-05-09T10:20:38;0.70;;;0.70;;
62362;SDS011;48396;48.426;1.500;2023-05-09T10:23:05;1.45;;;0.90;;
62362;SDS011;48396;48.426;1.500;2023-05-09T10:28:12;2.75;;;0.90;;
62362;SDS011;48396;48.426;1.500;2023-05-09T10:33:30;1.80;;;1.00;;
62362;SDS011;48396;48.426;1.500;2023-05-09T10:36:05;1.20;;;1.00;;
62362;SDS011;48396;48.426;1.500;2023-05-09T10:38:31;1.88;;;1.00;;
62362;SDS011;48396;48.426;1.500;2023-05-09T10:40:57;2.05;;;1.10;;
62362;SDS011;48396;48.426;1.500;2023-05-09T10:43:24;0.73;;;0.60;;
62362;SDS011;48396;48.426;1.500;2023-05-09T10:45:51;0.98;;;0.88;;
62362;SDS011;48396;48.426;1.500;2023-05-09T10:48:17;1.20;;;0.50;;
62362;SDS011;48396;48.426;1.500;2023-05-09T10:50:42;2.17;;;0.80;;
62362;SDS011;48396;48.426;1.500;2023-05-09T10:53:10;0.82;;;0.70;;
62362;SDS011;48396;48.426;1.500;2023-05-09T10:55:48;2.47;;;0.60;;
62362;SDS011;48396;48.426;1.500;2023-05-09T11:00:54;0.85;;;0.68;;
62362;SDS011;48396;48.426;1.500;2023-05-09T11:03:22;2.30;;;0.93;;
62362;SDS011;48396;48.426;1.500;2023-05-09T11:05:49;2.45;;;0.93;;
62362;SDS011;48396;48.426;1.500;2023-05-09T11:08:20;2.00;;;0.95;;
62362;SDS011;48396;48.426;1.500;2023-05-09T11:10:49;0.80;;;0.60;;
62362;SDS011;48396;48.426;1.500;2023-05-09T11:13:19;2.60;;;0.77;;
62362;SDS011;48396;48.426;1.500;2023-05-09T11:18:24;1.58;;;0.90;;
62362;SDS011;48396;48.426;1.500;2023-05-09T11:20:50;3.75;;;1.20;;
62362;SDS011;48396;48.426;1.500;2023-05-09T11:23:19;3.00;;;1.27;;
62362;SDS011;48396;48.426;1.500;2023-05-09T11:25:46;2.08;;;0.75;;
62362;SDS011;48396;48.426;1.500;2023-05-09T11:28:25;3.80;;;1.20;;
62362;SDS011;48396;48.426;1.500;2023-05-09T11:31:13;3.58;;;1.23;;
62362;SDS011;48396;48.426;1.500;2023-05-09T11:33:40;1.33;;;0.90;;
62362;SDS011;48396;48.426;1.500;2023-05-09T11:39:26;1.75;;;1.13;;
62362;SDS011;48396;48.426;1.500;2023-05-09T11:41:48;1.75;;;0.88;;
62362;SDS011;48396;48.426;1.500;2023-05-09T11:44:15;1.20;;;0.77;;
62362;SDS011;48396;48.426;1.500;2023-05-09T11:46:42;3.65;;;1.00;;
62362;SDS011;48396;48.426;1.500;2023-05-09T11:49:08;2.08;;;0.68;;
62362;SDS011;48396;48.426;1.500;2023-05-09T11:51:37;0.68;;;0.60;;
62362;SDS011;48396;48.426;1.500;2023-05-09T11:54:04;3.38;;;0.98;;
62362;SDS011;48396;48.426;1.500;2023-05-09T11:56:33;0.90;;;0.80;;
62362;SDS011;48396;48.426;1.500;2023-05-09T11:59:00;1.17;;;0.88;;
62362;SDS011;48396;48.426;1.500;2023-05-09T12:01:27;1.67;;;1.00;;
62362;SDS011;48396;48.426;1.500;2023-05-09T12:03:53;1.30;;;1.10;;
62362;SDS011;48396;48.426;1.500;2023-05-09T12:06:19;1.65;;;1.10;;
62362;SDS011;48396;48.426;1.500;2023-05-09T12:08:45;1.70;;;1.13;;
62362;SDS011;48396;48.426;1.500;2023-05-09T12:11:12;1.20;;;0.70;;
62362;SDS011;48396;48.426;1.500;2023-05-09T12:13:45;1.48;;;0.65;;
62362;SDS011;48396;48.426;1.500;2023-05-09T12:16:12;3.28;;;1.17;;
62362;SDS011;48396;48.426;1.500;2023-05-09T12:18:42;1.63;;;0.70;;
62362;SDS011;48396;48.426;1.500;2023-05-09T12:21:15;1.88;;;0.88;;
62362;SDS011;48396;48.426;1.500;2023-05-09T12:23:42;2.00;;;0.90;;
62362;SDS011;48396;48.426;1.500;2023-05-09T12:26:08;2.00;;;0.68;;
62362;SDS011;48396;48.426;1.500;2023-05-09T12:28:34;0.80;;;0.77;;
62362;SDS011;48396;48.426;1.500;2023-05-09T12:31:00;0.50;;;0.50;;
62362;SDS011;48396;48.426;1.500;2023-05-09T12:33:26;3.45;;;0.90;;
62362;SDS011;48396;48.426;1.500;2023-05-09T12:36:14;0.63;;;0.63;;
62362;SDS011;48396;48.426;1.500;2023-05-09T12:38:39;1.15;;;0.70;;
62362;SDS011;48396;48.426;1.500;2023-05-09T12:41:16;2.00;;;0.70;;
62362;SDS011;48396;48.426;1.500;2023-05-09T12:43:44;0.50;;;0.50;;
62362;SDS011;48396;48.426;1.500;2023-05-09T12:46:16;0.52;;;0.45;;
62362;SDS011;48396;48.426;1.500;2023-05-09T12:48:43;0.88;;;0.45;;
62362;SDS011;48396;48.426;1.500;2023-05-09T12:51:09;2.53;;;0.80;;
62362;SDS011;48396;48.426;1.500;2023-05-09T12:53:39;2.28;;;1.08;;
62362;SDS011;48396;48.426;1.500;2023-05-09T12:56:15;1.25;;;0.60;;
62362;SDS011;48396;48.426;1.500;2023-05-09T12:58:48;2.33;;;1.00;;
62362;SDS011;48396;48.426;1.500;2023-05-09T13:01:27;1.15;;;0.70;;
62362;SDS011;48396;48.426;1.500;2023-05-09T13:04:00;1.42;;;0.93;;
62362;SDS011;48396;48.426;1.500;2023-05-09T13:06:29;1.17;;;0.60;;
62362;SDS011;48396;48.426;1.500;2023-05-09T13:09:02;3.15;;;0.70;;
62362;SDS011;48396;48.426;1.500;2023-05-09T13:11:30;1.13;;;0.75;;
62362;SDS011;48396;48.426;1.500;2023-05-09T13:13:56;1.27;;;0.93;;
62362;SDS011;48396;48.426;1.500;2023-05-09T13:16:22;2.45;;;0.98;;
62362;SDS011;48396;48.426;1.500;2023-05-09T13:18:47;1.00;;;0.60;;
62362;SDS011;48396;48.426;1.500;2023-05-09T13:21:13;1.08;;;0.73;;
62362;SDS011;48396;48.426;1.500;2023-05-09T13:23:38;1.98;;;0.82;;
62362;SDS011;48396;48.426;1.500;2023-05-09T13:26:06;1.10;;;0.95;;
62362;SDS011;48396;48.426;1.500;2023-05-09T13:28:31;0.95;;;0.90;;
62362;SDS011;48396;48.426;1.500;2023-05-09T13:30:57;1.38;;;0.55;;
62362;SDS011;48396;48.426;1.500;2023-05-09T13:33:23;0.90;;;0.60;;
62362;SDS011;48396;48.426;1.500;2023-05-09T13:35:48;0.65;;;0.60;;
62362;SDS011;48396;48.426;1.500;2023-05-09T13:38:14;2.85;;;0.80;;
62362;SDS011;48396;48.426;1.500;2023-05-09T13:40:40;2.28;;;0.88;;
62362;SDS011;48396;48.426;1.500;2023-05-09T13:43:05;1.00;;;0.90;;
62362;SDS011;48396;48.426;1.500;2023-05-09T13:45:31;1.67;;;0.93;;
62362;SDS011;48396;48.426;1.500;2023-05-09T13:47:57;1.20;;;0.80;;
62362;SDS011;48396;48.426;1.500;2023-05-09T13:50:23;1.35;;;0.85;;
62362;SDS011;48396;48.426;1.500;2023-05-09T13:52:48;1.15;;;1.05;;
62362;SDS011;48396;48.426;1.500;2023-05-09T13:55:14;2.22;;;0.75;;
62362;SDS011;48396;48.426;1.500;2023-05-09T13:57:39;1.70;;;1.00;;
62362;SDS011;48396;48.426;1.500;2023-05-09T14:00:05;2.78;;;0.93;;
62362;SDS011;48396;48.426;1.500;2023-05-09T14:02:31;0.88;;;0.88;;
62362;SDS011;48396;48.426;1.500;2023-05-09T14:04:57;2.33;;;0.70;;
62362;SDS011;48396;48.426;1.500;2023-05-09T14:07:23;0.80;;;0.77;;
62362;SDS011;48396;48.426;1.500;2023-05-09T14:09:48;2.65;;;0.80;;
62362;SDS011;48396;48.426;1.500;2023-05-09T14:12:14;2.13;;;0.85;;
62362;SDS011;48396;48.426;1.500;2023-05-09T14:14:40;1.27;;;0.90;;
62362;SDS011;48396;48.426;1.500;2023-05-09T14:17:06;2.58;;;1.10;;
62362;SDS011;48396;48.426;1.500;2023-05-09T14:19:32;1.40;;;0.70;;
62362;SDS011;48396;48.426;1.500;2023-05-09T14:21:58;2.67;;;1.00;;
62362;SDS011;48396;48.426;1.500;2023-05-09T14:24:24;0.95;;;0.82;;
62362;SDS011;48396;48.426;1.500;2023-05-09T14:26:50;2.60;;;0.90;;
62362;SDS011;48396;48.426;1.500;2023-05-09T14:29:15;2.28;;;0.90;;
62362;SDS011;48396;48.426;1.500;2023-05-09T14:31:41;1.35;;;0.98;;
62362;SDS011;48396;48.426;1.500;2023-05-09T14:34:06;4.05;;;1.20;;
62362;SDS011;48396;48.426;1.500;2023-05-09T14:36:33;7.85;;;1.20;;
62362;SDS011;48396;48.426;1.500;2023-05-09T14:39:17;2.72;;;1.38;;
62362;SDS011;48396;48.426;1.500;2023-05-09T14:41:44;0.93;;;0.70;;
62362;SDS011;48396;48.426;1.500;2023-05-09T14:44:12;3.75;;;1.00;;
62362;SDS011;48396;48.426;1.500;2023-05-09T14:46:38;4.65;;;1.50;;
62362;SDS011;48396;48.426;1.500;2023-05-09T14:49:04;2.45;;;1.15;;
62362;SDS011;48396;48.426;1.500;2023-05-09T14:51:29;3.35;;;1.02;;
62362;SDS011;48396;48.426;1.500;2023-05-09T14:53:56;1.10;;;0.73;;
62362;SDS011;48396;48.426;1.500;2023-05-09T14:56:21;1.63;;;1.05;;
62362;SDS011;48396;48.426;1.500;2023-05-09T14:58:47;3.00;;;1.70;;
62362;SDS011;48396;48.426;1.500;2023-05-09T15:01:13;2.38;;;1.42;;
62362;SDS011;48396;48.426;1.500;2023-05-09T15:03:39;1.55;;;1.08;;
62362;SDS011;48396;48.426;1.500;2023-05-09T15:06:05;1.67;;;1.15;;
62362;SDS011;48396;48.426;1.500;2023-05-09T15:08:31;4.55;;;1.35;;
62362;SDS011;48396;48.426;1.500;2023-05-09T15:10:58;2.60;;;1.40;;
62362;SDS011;48396;48.426;1.500;2023-05-09T15:13:23;2.63;;;1.15;;
62362;SDS011;48396;48.426;1.500;2023-05-09T15:15:49;1.85;;;0.90;;
62362;SDS011;48396;48.426;1.500;2023-05-09T15:18:14;2.53;;;0.93;;
62362;SDS011;48396;48.426;1.500;2023-05-09T15:20:42;1.73;;;0.80;;
62362;SDS011;48396;48.426;1.500;2023-05-09T15:23:08;1.00;;;0.90;;